Main page


Airports :

Rahim Yar Khan, Pakistan

Shaikh Zayed International Airport

latitude: 28-23-02N, longitude: 70-16-47E, elevation: 83 m

METAR: missing

Time: 11:17 (06:17 UTC)


The report was made 2 hours and 2 minutes ago, at 04:15 UTC
Forecast valid from 20 at 06 UTC to 20 at 24 UTC
Wind 10 kt from the Northeast
Visibility: 4000 m
Few clouds at a height of 4000 ft
Scattered clouds at a height of 12000 ft
Probability 30% :
from 20 at 16 UTC to 20 at 20 UTC
Wind 25 kt from the North
Visibility: 2000 m
Few clouds at a height of 3000 ft, Cumulonimbus.
Scattered clouds at a height of 4000 ft
Broken clouds at a height of 10000 ft
thunderstorm, light rain

TAF: OPRK 200415Z 2006/2024 05010KT 4000 FU FEW040 SCT120 TX32/2010Z PROB30 TEMPO 2016/2020 36025KT 2000 -TSRA FEW030CB SCT040 BKN100

Weather observations and forecasts of more than 4000 airports (METAR and TAF reports).

The available stations are represented by yellow and red dots on the map.

Hover mouse over dot to see the name of the station.

Then click to see weather observations and forecasts.

To change the map : click on the green buttons with a black cross to zoom in, on the green button with a dash to zoom out, or on the green arrows for adjacent maps.